createdAt,value
2023-02-07T00:01:41.549Z,0.90
2023-02-07T00:04:10.458Z,2.80
2023-02-07T00:06:39.281Z,1.10
2023-02-07T00:09:09.417Z,0.50
2023-02-07T00:11:39.045Z,0.40
2023-02-07T00:14:09.468Z,2.00
2023-02-07T00:16:39.328Z,2.20
2023-02-07T00:19:08.508Z,2.80
2023-02-07T00:21:37.624Z,0.50
2023-02-07T00:24:07.198Z,1.30
2023-02-07T00:26:36.132Z,0.80
2023-02-07T00:29:05.145Z,0.90
2023-02-07T00:31:35.851Z,0.90
2023-02-07T00:34:07.276Z,1.70
2023-02-07T00:36:37.517Z,0.50
2023-02-07T00:39:10.990Z,4.60
2023-02-07T00:41:40.830Z,2.00
2023-02-07T00:44:09.618Z,2.10
2023-02-07T00:46:38.683Z,2.40
2023-02-07T00:49:07.612Z,3.30
2023-02-07T00:51:35.914Z,4.80
2023-02-07T00:54:04.783Z,4.10
2023-02-07T00:56:35.343Z,1.30
2023-02-07T00:59:03.856Z,3.40
2023-02-07T01:01:32.402Z,2.80
2023-02-07T01:04:01.407Z,1.40
2023-02-07T01:06:29.863Z,2.70
2023-02-07T01:08:59.412Z,0.50
2023-02-07T01:11:28.595Z,2.30
2023-02-07T01:14:00.614Z,0.70
2023-02-07T01:16:35.846Z,1.20
2023-02-07T01:19:07.606Z,1.30
2023-02-07T01:21:37.063Z,2.00
2023-02-07T01:24:07.137Z,1.60
2023-02-07T01:26:38.204Z,1.40
2023-02-07T01:29:07.233Z,1.20
2023-02-07T01:31:36.396Z,6.50
2023-02-07T01:34:06.141Z,2.10
2023-02-07T01:36:35.471Z,4.00
2023-02-07T01:39:04.527Z,2.10
2023-02-07T01:41:33.189Z,3.90
2023-02-07T01:44:08.047Z,2.70
2023-02-07T01:46:36.995Z,0.90
2023-02-07T01:49:10.085Z,1.70
2023-02-07T01:51:45.145Z,3.00
2023-02-07T01:54:15.585Z,2.00
2023-02-07T01:56:51.383Z,3.60
2023-02-07T01:59:20.754Z,2.20
2023-02-07T02:01:49.293Z,2.10
2023-02-07T02:04:17.822Z,4.20
2023-02-07T02:06:46.585Z,1.80
2023-02-07T02:09:16.630Z,1.90
2023-02-07T02:12:05.012Z,1.60
2023-02-07T02:15:11.541Z,1.70
2023-02-07T02:17:42.537Z,2.10
2023-02-07T02:20:39.442Z,1.70
2023-02-07T02:23:44.777Z,0.70
2023-02-07T02:26:28.213Z,4.10
2023-02-07T02:29:02.278Z,0.80
2023-02-07T02:31:46.924Z,2.20
2023-02-07T02:34:41.448Z,3.10
2023-02-07T02:37:29.416Z,0.60
2023-02-07T02:40:23.401Z,3.50
2023-02-07T02:43:08.154Z,0.80
2023-02-07T02:45:46.850Z,1.50
2023-02-07T02:48:17.533Z,0.50
2023-02-07T02:50:48.655Z,2.60
2023-02-07T02:53:17.188Z,0.60
2023-02-07T02:55:51.461Z,1.80
2023-02-07T02:58:44.609Z,0.60
2023-02-07T03:01:25.417Z,0.90
2023-02-07T03:03:54.573Z,0.40
2023-02-07T03:06:45.267Z,1.70
2023-02-07T03:09:22.721Z,0.80
2023-02-07T03:12:05.778Z,0.60
2023-02-07T03:14:44.344Z,1.20
2023-02-07T03:17:30.267Z,1.20
2023-02-07T03:20:04.336Z,0.60
2023-02-07T03:22:35.116Z,0.40
2023-02-07T03:25:05.760Z,0.40
2023-02-07T03:27:36.606Z,0.70
2023-02-07T03:30:10.476Z,0.30
2023-02-07T03:32:42.870Z,1.50
2023-02-07T03:35:56.548Z,0.80
2023-02-07T03:38:25.248Z,0.20
2023-02-07T03:40:58.837Z,0.90
2023-02-07T03:43:30.798Z,0.30
2023-02-07T03:46:00.309Z,0.40
2023-02-07T03:48:28.501Z,2.60
2023-02-07T03:50:57.048Z,0.30
2023-02-07T03:53:25.906Z,0.40
2023-02-07T03:55:54.189Z,0.40
2023-02-07T03:58:22.798Z,0.20
2023-02-07T04:00:51.303Z,0.30
2023-02-07T04:03:20.531Z,0.30
2023-02-07T04:05:49.007Z,0.20
2023-02-07T04:08:17.788Z,0.50
2023-02-07T04:10:57.533Z,0.90
2023-02-07T04:13:26.277Z,0.10
2023-02-07T04:15:54.726Z,0.10
2023-02-07T04:18:24.251Z,0.20
2023-02-07T04:21:00.402Z,0.30
2023-02-07T04:23:29.324Z,0.10
2023-02-07T04:25:58.600Z,0.20
2023-02-07T04:28:27.138Z,0.20
2023-02-07T04:30:56.176Z,0.10
2023-02-07T04:33:25.150Z,0.50
2023-02-07T04:35:59.399Z,0.20
2023-02-07T04:38:29.354Z,0.10
2023-02-07T04:41:03.753Z,0.60
2023-02-07T04:43:34.516Z,0.10
2023-02-07T04:46:05.776Z,0.20
2023-02-07T04:48:35.835Z,0.10
2023-02-07T04:51:06.172Z,0.50
2023-02-07T04:53:35.876Z,0.10
2023-02-07T04:56:05.224Z,0.10
2023-02-07T04:58:34.986Z,0.10
2023-02-07T05:01:03.336Z,0.10
2023-02-07T05:03:31.735Z,0.10
2023-02-07T05:06:00.447Z,0.10
2023-02-07T05:08:29.745Z,0.20
2023-02-07T05:10:57.974Z,0.10
2023-02-07T05:13:27.208Z,0.10
2023-02-07T05:15:55.461Z,0.10
2023-02-07T05:18:24.222Z,0.10
2023-02-07T05:20:53.902Z,0.10
2023-02-07T05:25:39.404Z,0.20
2023-02-07T05:28:08.318Z,0.20
2023-02-07T05:30:37.551Z,0.20
2023-02-07T05:33:05.885Z,0.10
2023-02-07T05:35:37.621Z,0.20
2023-02-07T05:38:10.811Z,0.20
2023-02-07T05:40:40.742Z,0.10
2023-02-07T05:43:10.799Z,0.30
2023-02-07T05:45:39.285Z,0.20
2023-02-07T05:48:08.145Z,0.20
2023-02-07T05:50:37.301Z,0.20
2023-02-07T05:53:06.600Z,0.40
2023-02-07T05:55:35.500Z,0.20
2023-02-07T05:58:05.650Z,0.50
2023-02-07T06:00:34.084Z,0.50
2023-02-07T06:03:02.441Z,0.50
2023-02-07T06:05:32.211Z,0.90
2023-02-07T06:08:00.960Z,0.80
2023-02-07T06:10:29.980Z,0.30
2023-02-07T06:12:58.388Z,0.40
2023-02-07T06:15:26.716Z,1.10
2023-02-07T06:17:55.523Z,0.50
2023-02-07T06:20:23.885Z,0.80
2023-02-07T06:22:52.145Z,1.10
2023-02-07T06:25:21.705Z,0.80
2023-02-07T06:27:50.752Z,1.20
2023-02-07T06:30:19.653Z,0.70
2023-02-07T06:32:48.269Z,2.50
2023-02-07T06:35:17.690Z,1.60
2023-02-07T06:37:46.465Z,1.50
2023-02-07T06:40:14.728Z,1.80
2023-02-07T06:42:45.450Z,0.70
2023-02-07T06:45:13.986Z,0.70
2023-02-07T06:47:42.805Z,1.60
2023-02-07T06:50:11.274Z,4.40
2023-02-07T06:52:39.999Z,0.70
2023-02-07T06:55:08.753Z,2.80
2023-02-07T06:57:37.481Z,1.60
2023-02-07T07:00:06.737Z,1.50
2023-02-07T07:02:35.429Z,0.90
2023-02-07T07:05:04.154Z,2.30
2023-02-07T07:07:33.817Z,1.60
2023-02-07T07:10:02.653Z,0.90
2023-02-07T07:12:30.998Z,1.60
2023-02-07T07:15:00.066Z,1.30
2023-02-07T07:17:29.596Z,1.70
2023-02-07T07:19:58.786Z,2.10
2023-02-07T07:22:28.048Z,0.70
2023-02-07T07:24:57.570Z,0.90
2023-02-07T07:27:27.134Z,0.80
2023-02-07T07:29:56.400Z,2.00
2023-02-07T07:32:33.942Z,0.70
2023-02-07T07:35:04.998Z,0.80
2023-02-07T07:37:34.095Z,1.60
2023-02-07T07:40:04.311Z,1.30
2023-02-07T07:42:33.108Z,3.70
2023-02-07T07:45:02.000Z,2.70
2023-02-07T07:47:31.839Z,1.60
2023-02-07T07:50:00.645Z,1.30
2023-02-07T07:52:29.445Z,1.50
2023-02-07T07:54:58.901Z,2.40
2023-02-07T07:57:28.347Z,2.50
2023-02-07T07:59:57.799Z,1.80
2023-02-07T08:02:26.350Z,1.40
2023-02-07T08:04:54.718Z,4.90
2023-02-07T08:07:23.588Z,2.20
2023-02-07T08:09:53.517Z,2.30
2023-02-07T08:12:22.440Z,2.40
2023-02-07T08:14:50.697Z,4.00
2023-02-07T08:17:20.052Z,5.60
2023-02-07T08:19:49.429Z,4.80
2023-02-07T08:22:17.674Z,3.50
2023-02-07T08:24:47.485Z,2.10
2023-02-07T08:27:16.521Z,2.40
2023-02-07T08:29:44.798Z,5.10
2023-02-07T08:32:14.912Z,8.40
2023-02-07T08:34:44.644Z,7.00
2023-02-07T08:37:14.193Z,14.10
2023-02-07T08:39:43.218Z,9.80
2023-02-07T08:42:12.102Z,12.60
2023-02-07T08:44:41.005Z,5.60
2023-02-07T08:47:09.409Z,6.70
2023-02-07T08:49:39.125Z,9.40
2023-02-07T08:52:09.737Z,5.00
2023-02-07T08:54:39.674Z,6.00
2023-02-07T08:57:08.797Z,3.90
2023-02-07T08:59:38.910Z,2.90
2023-02-07T09:02:08.826Z,3.80
2023-02-07T09:04:37.886Z,2.90
2023-02-07T09:07:06.768Z,3.40
2023-02-07T09:09:35.542Z,2.30
2023-02-07T09:12:04.019Z,2.70
2023-02-07T09:14:33.118Z,2.20
2023-02-07T09:17:02.788Z,3.70
2023-02-07T09:19:33.743Z,2.60
2023-02-07T09:22:04.158Z,3.90
2023-02-07T09:24:33.693Z,3.90
2023-02-07T09:27:03.625Z,4.00
2023-02-07T09:29:33.230Z,1.60
2023-02-07T09:32:02.739Z,1.90
2023-02-07T09:34:33.979Z,2.70
2023-02-07T09:37:03.443Z,1.80
2023-02-07T09:39:31.664Z,1.60
2023-02-07T09:42:08.746Z,4.60
2023-02-07T09:45:01.269Z,2.10
2023-02-07T09:47:32.918Z,5.30
2023-02-07T09:50:08.629Z,4.10
2023-02-07T09:52:46.587Z,2.60
2023-02-07T09:55:21.733Z,4.80
2023-02-07T09:58:04.030Z,2.20
2023-02-07T10:00:37.310Z,5.30
2023-02-07T10:03:22.386Z,3.90
2023-02-07T10:06:03.543Z,6.90
2023-02-07T10:08:40.772Z,8.90
2023-02-07T10:11:38.596Z,3.70
2023-02-07T10:14:18.290Z,8.30
2023-02-07T10:17:05.733Z,6.90
2023-02-07T10:19:38.588Z,9.40
2023-02-07T10:22:46.788Z,8.10
2023-02-07T10:25:34.635Z,4.30
2023-02-07T10:28:06.997Z,9.30
2023-02-07T10:30:39.281Z,13.40
2023-02-07T10:33:16.746Z,3.70
2023-02-07T10:35:47.061Z,8.80
2023-02-07T10:38:42.086Z,9.00
2023-02-07T10:41:16.811Z,5.30
2023-02-07T10:43:47.762Z,2.60
2023-02-07T10:46:19.203Z,3.90
2023-02-07T10:48:48.800Z,5.90
2023-02-07T10:51:44.144Z,5.10
2023-02-07T10:54:16.244Z,9.10
2023-02-07T10:56:51.725Z,4.60
2023-02-07T10:59:43.577Z,4.80
2023-02-07T11:02:31.257Z,5.50
2023-02-07T11:05:20.957Z,5.70
2023-02-07T11:08:17.779Z,7.30
2023-02-07T11:10:46.981Z,7.40
2023-02-07T11:13:18.787Z,7.60
2023-02-07T11:15:54.861Z,8.60
2023-02-07T11:18:28.265Z,8.20
2023-02-07T11:20:57.213Z,9.70
2023-02-07T11:23:26.441Z,4.50
2023-02-07T11:25:56.694Z,9.90
2023-02-07T11:28:31.064Z,7.90
2023-02-07T11:31:08.059Z,8.30
2023-02-07T11:33:37.633Z,11.30
2023-02-07T11:36:10.565Z,8.30
2023-02-07T11:38:49.020Z,8.10
2023-02-07T11:41:23.450Z,7.00
2023-02-07T11:43:58.173Z,6.30
2023-02-07T11:46:31.659Z,7.20
2023-02-07T11:49:00.757Z,5.20
2023-02-07T11:51:31.790Z,10.30
2023-02-07T11:54:03.760Z,9.00
2023-02-07T11:56:50.403Z,9.40
2023-02-07T11:59:22.524Z,8.80
2023-02-07T12:01:58.254Z,12.90
2023-02-07T12:04:39.033Z,10.00
2023-02-07T12:07:47.345Z,9.30
2023-02-07T12:10:33.016Z,8.20
2023-02-07T12:13:13.995Z,9.00
2023-02-07T12:15:49.551Z,7.80
2023-02-07T12:18:49.184Z,5.80
2023-02-07T12:21:26.600Z,6.40
2023-02-07T12:24:00.683Z,8.90
2023-02-07T12:26:51.961Z,7.80
2023-02-07T12:29:23.292Z,12.00
2023-02-07T12:32:20.413Z,9.90
2023-02-07T12:35:00.664Z,5.90
2023-02-07T12:37:57.584Z,5.90
2023-02-07T12:40:53.846Z,4.40
2023-02-07T12:43:28.416Z,5.20
2023-02-07T12:46:01.195Z,4.40
2023-02-07T12:48:48.230Z,5.60
2023-02-07T12:51:22.501Z,9.00
2023-02-07T12:54:18.059Z,6.00
2023-02-07T12:56:58.665Z,4.60
2023-02-07T12:59:33.525Z,3.80
2023-02-07T13:02:24.886Z,5.60
2023-02-07T13:05:12.383Z,8.60
2023-02-07T13:08:19.618Z,7.40
2023-02-07T13:11:07.090Z,5.50
2023-02-07T13:13:53.993Z,11.50
2023-02-07T13:16:28.798Z,11.40
2023-02-07T13:19:03.903Z,4.80
2023-02-07T13:21:56.346Z,6.30
2023-02-07T13:24:28.068Z,5.90
2023-02-07T13:27:02.270Z,4.60
2023-02-07T13:29:35.186Z,5.70
2023-02-07T13:32:08.734Z,7.80
2023-02-07T13:34:46.321Z,7.10
2023-02-07T13:37:18.016Z,7.70
2023-02-07T13:39:49.858Z,5.80
2023-02-07T13:42:35.107Z,17.20
2023-02-07T13:45:52.833Z,6.00
2023-02-07T13:48:50.314Z,10.50
2023-02-07T13:52:10.936Z,11.90
2023-02-07T13:54:56.105Z,8.20
2023-02-07T13:57:36.570Z,7.10
2023-02-07T14:00:19.538Z,10.10
2023-02-07T14:02:53.302Z,7.20
2023-02-07T14:05:27.806Z,9.40
2023-02-07T14:08:18.367Z,9.80
2023-02-07T14:10:57.535Z,8.00
2023-02-07T14:13:31.758Z,10.30
2023-02-07T14:16:12.589Z,10.90
2023-02-07T14:18:45.405Z,9.40
2023-02-07T14:21:20.033Z,8.60
2023-02-07T14:24:19.424Z,11.20
2023-02-07T14:27:00.597Z,8.70
2023-02-07T14:29:29.686Z,8.00
2023-02-07T14:32:01.343Z,10.20
2023-02-07T14:34:32.863Z,8.20
2023-02-07T14:37:21.221Z,9.00
2023-02-07T14:39:50.444Z,9.40
2023-02-07T14:42:22.717Z,6.80
2023-02-07T14:44:58.668Z,7.70
2023-02-07T14:47:29.594Z,7.00
2023-02-07T14:50:01.252Z,11.80
2023-02-07T14:52:33.355Z,10.10
2023-02-07T14:55:26.250Z,8.10
2023-02-07T14:58:01.163Z,14.00
2023-02-07T15:00:48.325Z,12.30
2023-02-07T15:03:18.658Z,7.00
2023-02-07T15:05:54.336Z,8.90
2023-02-07T15:08:24.987Z,7.10
2023-02-07T15:11:11.226Z,9.30
2023-02-07T15:13:44.583Z,14.80
2023-02-07T15:16:21.521Z,8.50
2023-02-07T15:19:02.926Z,10.70
2023-02-07T15:21:44.272Z,11.50
2023-02-07T15:24:51.940Z,9.80
2023-02-07T15:27:29.426Z,6.30
2023-02-07T15:30:02.058Z,12.30
2023-02-07T15:32:33.624Z,9.70
2023-02-07T15:35:17.627Z,8.70
2023-02-07T15:37:47.019Z,9.40
2023-02-07T15:40:19.614Z,13.10
2023-02-07T15:42:53.368Z,13.60
2023-02-07T15:45:29.395Z,15.50
2023-02-07T15:48:07.119Z,13.40
2023-02-07T15:50:38.030Z,9.80
2023-02-07T15:53:08.418Z,11.30
2023-02-07T15:55:46.838Z,12.90
2023-02-07T15:58:28.953Z,10.70
2023-02-07T16:01:07.409Z,16.00
2023-02-07T16:03:41.746Z,14.10
2023-02-07T16:06:17.026Z,10.30
2023-02-07T16:08:45.855Z,9.70
2023-02-07T16:11:33.710Z,9.50
2023-02-07T16:14:37.851Z,13.80
2023-02-07T16:17:22.569Z,13.20
2023-02-07T16:19:51.247Z,18.30
2023-02-07T16:22:30.790Z,6.60
2023-02-07T16:25:02.322Z,9.30
2023-02-07T16:27:32.017Z,9.00
2023-02-07T16:30:01.410Z,12.60
2023-02-07T16:32:34.454Z,6.40
2023-02-07T16:35:02.653Z,5.90
2023-02-07T16:37:30.880Z,6.20
2023-02-07T16:39:59.152Z,11.30
2023-02-07T16:42:27.981Z,7.90
2023-02-07T16:44:56.406Z,7.90
2023-02-07T16:47:26.186Z,9.20
2023-02-07T16:49:55.930Z,10.80
2023-02-07T16:52:24.447Z,7.80
2023-02-07T16:54:53.570Z,7.70
2023-02-07T16:57:21.861Z,6.80
2023-02-07T16:59:51.148Z,10.10
2023-02-07T17:02:19.422Z,6.80
2023-02-07T17:04:47.753Z,7.90
2023-02-07T17:07:17.234Z,10.40
2023-02-07T17:09:45.634Z,11.80
2023-02-07T17:12:14.911Z,12.10
2023-02-07T17:14:43.106Z,5.00
2023-02-07T17:17:13.072Z,7.30
2023-02-07T17:19:41.363Z,5.30
2023-02-07T17:22:11.956Z,8.80
2023-02-07T17:24:40.470Z,6.00
2023-02-07T17:27:10.464Z,8.90
2023-02-07T17:29:39.063Z,11.40
2023-02-07T17:32:07.363Z,8.90
2023-02-07T17:34:35.719Z,11.00
2023-02-07T17:37:04.098Z,8.20
2023-02-07T17:39:33.221Z,7.30
2023-02-07T17:42:02.459Z,6.40
2023-02-07T17:44:32.987Z,9.50
2023-02-07T17:47:02.498Z,9.30
2023-02-07T17:49:30.763Z,5.70
2023-02-07T17:51:59.259Z,7.40
2023-02-07T17:54:27.420Z,6.70
2023-02-07T17:56:56.428Z,9.00
2023-02-07T17:59:25.254Z,13.50
2023-02-07T18:01:53.642Z,17.60
2023-02-07T18:04:21.833Z,10.40
2023-02-07T18:06:50.448Z,11.70
2023-02-07T18:09:20.126Z,10.70
2023-02-07T18:11:49.568Z,9.10
2023-02-07T18:14:18.426Z,8.80
2023-02-07T18:16:47.250Z,8.10
2023-02-07T18:19:17.506Z,10.70
2023-02-07T18:21:45.984Z,16.90
2023-02-07T18:24:15.745Z,9.00
2023-02-07T18:26:44.032Z,9.80
2023-02-07T18:29:12.466Z,12.00
2023-02-07T18:31:41.127Z,10.60
2023-02-07T18:34:09.491Z,10.50
2023-02-07T18:36:37.676Z,10.60
2023-02-07T18:39:09.428Z,11.00
2023-02-07T18:41:38.272Z,6.20
2023-02-07T18:44:07.067Z,10.20
2023-02-07T18:46:36.167Z,7.30
2023-02-07T18:49:04.344Z,14.00
2023-02-07T18:51:32.815Z,7.90
2023-02-07T18:54:01.013Z,9.20
2023-02-07T18:56:29.166Z,11.60
2023-02-07T18:58:57.436Z,10.00
2023-02-07T19:01:32.604Z,10.90
2023-02-07T19:04:01.855Z,9.80
2023-02-07T19:06:32.994Z,9.60
2023-02-07T19:09:01.492Z,7.10
2023-02-07T19:11:30.242Z,7.20
2023-02-07T19:13:58.454Z,8.90
2023-02-07T19:16:29.192Z,10.50
2023-02-07T19:18:58.989Z,11.00
2023-02-07T19:21:27.429Z,12.40
2023-02-07T19:23:58.047Z,9.40
2023-02-07T19:26:26.258Z,6.10
2023-02-07T19:28:54.571Z,9.10
2023-02-07T19:31:24.035Z,9.50
2023-02-07T19:33:52.502Z,10.70
2023-02-07T19:36:20.717Z,9.50
2023-02-07T19:38:52.830Z,9.60
2023-02-07T19:41:22.578Z,8.00
2023-02-07T19:43:51.510Z,10.60
2023-02-07T19:46:21.545Z,8.30
2023-02-07T19:48:51.168Z,8.00
2023-02-07T19:51:22.966Z,7.40
2023-02-07T19:53:51.851Z,7.80
2023-02-07T19:56:22.787Z,7.40
2023-02-07T19:58:53.945Z,8.30
2023-02-07T20:01:24.584Z,8.30
2023-02-07T20:03:54.704Z,9.00
2023-02-07T20:06:26.825Z,12.10
2023-02-07T20:08:56.530Z,13.50
2023-02-07T20:11:25.222Z,10.20
2023-02-07T20:13:55.612Z,11.10
2023-02-07T20:16:26.417Z,10.10
2023-02-07T20:18:55.899Z,10.20
2023-02-07T20:21:29.243Z,10.80
2023-02-07T20:23:58.148Z,9.40
2023-02-07T20:26:31.574Z,11.00
2023-02-07T20:29:03.697Z,10.60
2023-02-07T20:31:32.975Z,8.50
2023-02-07T20:34:01.367Z,8.40
2023-02-07T20:36:31.154Z,7.40
2023-02-07T20:39:00.561Z,9.90
2023-02-07T20:41:29.885Z,9.80
2023-02-07T20:44:05.269Z,13.40
2023-02-07T20:46:36.441Z,8.50
2023-02-07T20:49:07.984Z,8.20
2023-02-07T20:51:36.619Z,8.20
2023-02-07T20:54:06.663Z,10.30
2023-02-07T20:56:35.161Z,10.50
2023-02-07T20:59:04.847Z,8.40
2023-02-07T21:01:34.939Z,10.30
2023-02-07T21:04:05.176Z,8.30
2023-02-07T21:06:35.675Z,7.60
2023-02-07T21:09:06.289Z,7.90
2023-02-07T21:11:38.426Z,5.50
2023-02-07T21:14:09.160Z,4.70
2023-02-07T21:16:37.442Z,6.70
2023-02-07T21:19:05.982Z,7.90
2023-02-07T21:21:34.285Z,4.80
2023-02-07T21:24:02.526Z,5.20
2023-02-07T21:26:31.251Z,5.00
2023-02-07T21:29:01.602Z,7.00
2023-02-07T21:31:31.240Z,5.70
2023-02-07T21:33:59.817Z,3.00
2023-02-07T21:36:31.472Z,3.50
2023-02-07T21:39:01.539Z,3.70
2023-02-07T21:41:30.601Z,3.10
2023-02-07T21:43:59.998Z,4.30
2023-02-07T21:46:31.338Z,2.60
2023-02-07T21:49:02.150Z,3.50
2023-02-07T21:51:32.320Z,3.80
2023-02-07T21:54:02.119Z,4.00
2023-02-07T21:56:36.590Z,3.00
2023-02-07T21:59:07.891Z,3.60
2023-02-07T22:01:36.318Z,3.50
2023-02-07T22:04:06.938Z,4.80
2023-02-07T22:06:35.128Z,4.70
2023-02-07T22:09:04.078Z,4.70
2023-02-07T22:11:35.115Z,3.90
2023-02-07T22:14:04.161Z,3.50
2023-02-07T22:16:33.349Z,4.20
2023-02-07T22:19:03.269Z,3.30
2023-02-07T22:21:36.421Z,5.00
2023-02-07T22:24:06.265Z,3.50
2023-02-07T22:26:35.456Z,4.00
2023-02-07T22:29:07.293Z,7.00
2023-02-07T22:31:38.561Z,2.00
2023-02-07T22:34:10.740Z,3.90
2023-02-07T22:36:41.209Z,5.00
2023-02-07T22:39:13.156Z,3.80
2023-02-07T22:41:41.910Z,4.30
2023-02-07T22:44:10.380Z,1.80
2023-02-07T22:46:39.254Z,3.80
2023-02-07T22:49:07.526Z,2.20
2023-02-07T22:51:37.749Z,2.20
2023-02-07T22:54:10.022Z,2.80
2023-02-07T22:56:39.068Z,2.90
2023-02-07T22:59:07.641Z,3.80
2023-02-07T23:01:40.213Z,3.00
2023-02-07T23:04:13.863Z,2.40
2023-02-07T23:06:43.229Z,5.90
2023-02-07T23:09:11.756Z,3.00
2023-02-07T23:11:39.922Z,3.00
2023-02-07T23:14:08.451Z,1.60
2023-02-07T23:16:37.091Z,3.20
2023-02-07T23:19:15.935Z,3.60
2023-02-07T23:21:44.653Z,2.90
2023-02-07T23:24:13.196Z,4.60
2023-02-07T23:26:42.582Z,3.40
2023-02-07T23:29:11.075Z,3.30
2023-02-07T23:31:39.389Z,3.60
2023-02-07T23:34:08.127Z,5.10
2023-02-07T23:36:37.814Z,4.50
2023-02-07T23:39:06.325Z,3.70
2023-02-07T23:41:35.154Z,4.50
2023-02-07T23:44:05.228Z,4.20
2023-02-07T23:46:34.094Z,5.00
2023-02-07T23:49:02.971Z,3.80
2023-02-07T23:51:31.665Z,3.20
2023-02-07T23:54:00.404Z,4.00
2023-02-07T23:56:28.705Z,5.10
2023-02-07T23:58:56.924Z,5.80
